sensor_id;sensor_type;location;lat;lon;timestamp;P1;durP1;ratioP1;P2;durP2;ratioP2
70467;SDS011;57934;51.532;7.684;2023-08-07T00:01:19;10.98;;;8.55;;
70467;SDS011;57934;51.532;7.684;2023-08-07T00:03:45;12.38;;;8.30;;
70467;SDS011;57934;51.532;7.684;2023-08-07T00:06:13;8.75;;;7.90;;
70467;SDS011;57934;51.532;7.684;2023-08-07T00:08:39;10.82;;;8.30;;
70467;SDS011;57934;51.532;7.684;2023-08-07T00:11:05;12.40;;;8.77;;
70467;SDS011;57934;51.532;7.684;2023-08-07T00:13:34;11.07;;;8.75;;
70467;SDS011;57934;51.532;7.684;2023-08-07T00:16:00;16.83;;;8.70;;
70467;SDS011;57934;51.532;7.684;2023-08-07T00:18:27;9.60;;;8.32;;
70467;SDS011;57934;51.532;7.684;2023-08-07T00:20:54;11.02;;;8.55;;
70467;SDS011;57934;51.532;7.684;2023-08-07T00:23:20;13.90;;;9.32;;
70467;SDS011;57934;51.532;7.684;2023-08-07T00:25:45;9.90;;;8.35;;
70467;SDS011;57934;51.532;7.684;2023-08-07T00:28:11;12.00;;;9.32;;
70467;SDS011;57934;51.532;7.684;2023-08-07T00:30:37;14.90;;;9.57;;
70467;SDS011;57934;51.532;7.684;2023-08-07T00:33:03;9.93;;;8.93;;
70467;SDS011;57934;51.532;7.684;2023-08-07T00:35:29;13.90;;;8.93;;
70467;SDS011;57934;51.532;7.684;2023-08-07T00:37:55;10.43;;;7.53;;
70467;SDS011;57934;51.532;7.684;2023-08-07T00:40:21;8.43;;;7.38;;
70467;SDS011;57934;51.532;7.684;2023-08-07T00:42:47;8.95;;;6.68;;
70467;SDS011;57934;51.532;7.684;2023-08-07T00:45:14;7.93;;;6.50;;
70467;SDS011;57934;51.532;7.684;2023-08-07T00:47:40;9.15;;;6.03;;
70467;SDS011;57934;51.532;7.684;2023-08-07T00:50:07;5.72;;;5.07;;
70467;SDS011;57934;51.532;7.684;2023-08-07T00:52:33;6.18;;;4.68;;
70467;SDS011;57934;51.532;7.684;2023-08-07T00:54:59;5.00;;;4.45;;
70467;SDS011;57934;51.532;7.684;2023-08-07T00:57:26;6.45;;;4.55;;
70467;SDS011;57934;51.532;7.684;2023-08-07T00:59:53;5.30;;;4.30;;
70467;SDS011;57934;51.532;7.684;2023-08-07T01:02:19;5.00;;;3.58;;
70467;SDS011;57934;51.532;7.684;2023-08-07T01:04:46;3.47;;;3.17;;
70467;SDS011;57934;51.532;7.684;2023-08-07T01:07:12;4.68;;;3.58;;
70467;SDS011;57934;51.532;7.684;2023-08-07T01:09:38;4.60;;;3.00;;
70467;SDS011;57934;51.532;7.684;2023-08-07T01:12:19;3.92;;;3.30;;
70467;SDS011;57934;51.532;7.684;2023-08-07T01:17:28;2.97;;;2.75;;
70467;SDS011;57934;51.532;7.684;2023-08-07T01:19:54;2.90;;;2.50;;
70467;SDS011;57934;51.532;7.684;2023-08-07T01:22:21;4.68;;;2.10;;
70467;SDS011;57934;51.532;7.684;2023-08-07T01:24:48;3.75;;;1.98;;
70467;SDS011;57934;51.532;7.684;2023-08-07T01:29:55;4.13;;;2.13;;
70467;SDS011;57934;51.532;7.684;2023-08-07T01:32:36;2.83;;;1.80;;
70467;SDS011;57934;51.532;7.684;2023-08-07T01:35:11;6.55;;;2.00;;
70467;SDS011;57934;51.532;7.684;2023-08-07T01:37:39;3.53;;;1.80;;
70467;SDS011;57934;51.532;7.684;2023-08-07T01:40:07;7.82;;;1.88;;
70467;SDS011;57934;51.532;7.684;2023-08-07T01:42:35;3.53;;;1.90;;
70467;SDS011;57934;51.532;7.684;2023-08-07T01:45:03;5.68;;;1.80;;
70467;SDS011;57934;51.532;7.684;2023-08-07T01:47:30;5.07;;;1.80;;
70467;SDS011;57934;51.532;7.684;2023-08-07T01:49:56;2.70;;;1.90;;
70467;SDS011;57934;51.532;7.684;2023-08-07T01:52:22;5.13;;;2.78;;
70467;SDS011;57934;51.532;7.684;2023-08-07T01:54:48;5.30;;;4.40;;
70467;SDS011;57934;51.532;7.684;2023-08-07T01:57:14;8.45;;;5.32;;
70467;SDS011;57934;51.532;7.684;2023-08-07T01:59:40;8.65;;;5.78;;
70467;SDS011;57934;51.532;7.684;2023-08-07T02:02:06;9.50;;;5.20;;
70467;SDS011;57934;51.532;7.684;2023-08-07T02:04:32;9.07;;;6.05;;
70467;SDS011;57934;51.532;7.684;2023-08-07T02:06:58;13.57;;;6.38;;
70467;SDS011;57934;51.532;7.684;2023-08-07T02:09:24;7.43;;;6.13;;
70467;SDS011;57934;51.532;7.684;2023-08-07T02:11:50;10.60;;;6.25;;
70467;SDS011;57934;51.532;7.684;2023-08-07T02:14:16;10.05;;;5.95;;
70467;SDS011;57934;51.532;7.684;2023-08-07T02:16:42;9.30;;;5.90;;
70467;SDS011;57934;51.532;7.684;2023-08-07T02:19:08;8.25;;;6.25;;
70467;SDS011;57934;51.532;7.684;2023-08-07T02:21:34;8.55;;;5.90;;
70467;SDS011;57934;51.532;7.684;2023-08-07T02:24:00;8.77;;;5.97;;
70467;SDS011;57934;51.532;7.684;2023-08-07T02:26:26;14.52;;;6.50;;
70467;SDS011;57934;51.532;7.684;2023-08-07T02:28:52;8.95;;;6.47;;
70467;SDS011;57934;51.532;7.684;2023-08-07T02:31:18;8.48;;;6.18;;
70467;SDS011;57934;51.532;7.684;2023-08-07T02:33:44;10.50;;;6.07;;
70467;SDS011;57934;51.532;7.684;2023-08-07T02:36:10;9.07;;;5.78;;
70467;SDS011;57934;51.532;7.684;2023-08-07T02:38:36;11.88;;;6.13;;
70467;SDS011;57934;51.532;7.684;2023-08-07T02:41:01;10.38;;;6.07;;
70467;SDS011;57934;51.532;7.684;2023-08-07T02:43:28;12.55;;;6.07;;
70467;SDS011;57934;51.532;7.684;2023-08-07T02:45:54;7.43;;;4.93;;
70467;SDS011;57934;51.532;7.684;2023-08-07T02:48:20;11.07;;;5.70;;
70467;SDS011;57934;51.532;7.684;2023-08-07T02:50:46;11.07;;;5.57;;
70467;SDS011;57934;51.532;7.684;2023-08-07T02:53:12;6.47;;;5.32;;
70467;SDS011;57934;51.532;7.684;2023-08-07T02:55:38;16.52;;;5.82;;
70467;SDS011;57934;51.532;7.684;2023-08-07T02:58:04;8.10;;;5.60;;
70467;SDS011;57934;51.532;7.684;2023-08-07T03:00:30;13.15;;;5.97;;
70467;SDS011;57934;51.532;7.684;2023-08-07T03:02:56;10.23;;;6.70;;
70467;SDS011;57934;51.532;7.684;2023-08-07T03:05:22;11.18;;;6.50;;
70467;SDS011;57934;51.532;7.684;2023-08-07T03:07:48;10.07;;;6.25;;
70467;SDS011;57934;51.532;7.684;2023-08-07T03:10:14;9.30;;;6.15;;
70467;SDS011;57934;51.532;7.684;2023-08-07T03:12:40;8.57;;;5.68;;
70467;SDS011;57934;51.532;7.684;2023-08-07T03:15:06;11.95;;;6.80;;
70467;SDS011;57934;51.532;7.684;2023-08-07T03:17:32;10.88;;;6.00;;
70467;SDS011;57934;51.532;7.684;2023-08-07T03:19:58;12.10;;;5.97;;
70467;SDS011;57934;51.532;7.684;2023-08-07T03:22:24;11.65;;;6.63;;
70467;SDS011;57934;51.532;7.684;2023-08-07T03:24:50;8.73;;;5.88;;
70467;SDS011;57934;51.532;7.684;2023-08-07T03:27:16;9.07;;;6.03;;
70467;SDS011;57934;51.532;7.684;2023-08-07T03:29:42;8.65;;;5.43;;
70467;SDS011;57934;51.532;7.684;2023-08-07T03:32:08;9.68;;;6.43;;
70467;SDS011;57934;51.532;7.684;2023-08-07T03:34:36;7.10;;;5.38;;
70467;SDS011;57934;51.532;7.684;2023-08-07T03:37:03;7.28;;;4.80;;
70467;SDS011;57934;51.532;7.684;2023-08-07T03:39:29;7.10;;;4.22;;
70467;SDS011;57934;51.532;7.684;2023-08-07T03:41:55;7.32;;;4.00;;
70467;SDS011;57934;51.532;7.684;2023-08-07T03:44:22;5.40;;;3.72;;
70467;SDS011;57934;51.532;7.684;2023-08-07T03:46:48;8.38;;;3.60;;
70467;SDS011;57934;51.532;7.684;2023-08-07T03:49:13;8.23;;;3.17;;
70467;SDS011;57934;51.532;7.684;2023-08-07T03:51:40;4.38;;;3.30;;
70467;SDS011;57934;51.532;7.684;2023-08-07T03:54:06;5.18;;;3.22;;
70467;SDS011;57934;51.532;7.684;2023-08-07T03:56:32;12.45;;;3.85;;
70467;SDS011;57934;51.532;7.684;2023-08-07T03:59:02;7.30;;;3.58;;
70467;SDS011;57934;51.532;7.684;2023-08-07T04:01:29;6.97;;;4.03;;
70467;SDS011;57934;51.532;7.684;2023-08-07T04:03:55;7.75;;;3.90;;
70467;SDS011;57934;51.532;7.684;2023-08-07T04:06:21;5.57;;;3.75;;
70467;SDS011;57934;51.532;7.684;2023-08-07T04:08:47;7.22;;;3.25;;
70467;SDS011;57934;51.532;7.684;2023-08-07T04:11:13;11.50;;;2.95;;
70467;SDS011;57934;51.532;7.684;2023-08-07T04:13:39;8.27;;;3.50;;
70467;SDS011;57934;51.532;7.684;2023-08-07T04:16:05;6.90;;;3.90;;
70467;SDS011;57934;51.532;7.684;2023-08-07T04:18:34;10.55;;;3.92;;
70467;SDS011;57934;51.532;7.684;2023-08-07T04:21:02;6.30;;;3.92;;
70467;SDS011;57934;51.532;7.684;2023-08-07T04:23:28;12.65;;;4.85;;
70467;SDS011;57934;51.532;7.684;2023-08-07T04:25:54;10.65;;;4.55;;
70467;SDS011;57934;51.532;7.684;2023-08-07T04:28:20;12.85;;;4.60;;
70467;SDS011;57934;51.532;7.684;2023-08-07T04:30:48;8.63;;;4.60;;
70467;SDS011;57934;51.532;7.684;2023-08-07T04:33:16;10.95;;;4.82;;
70467;SDS011;57934;51.532;7.684;2023-08-07T04:35:42;12.77;;;5.38;;
70467;SDS011;57934;51.532;7.684;2023-08-07T04:38:09;12.98;;;5.57;;
70467;SDS011;57934;51.532;7.684;2023-08-07T04:40:35;14.95;;;5.78;;
70467;SDS011;57934;51.532;7.684;2023-08-07T04:43:01;14.82;;;4.80;;
70467;SDS011;57934;51.532;7.684;2023-08-07T04:45:27;5.60;;;4.57;;
70467;SDS011;57934;51.532;7.684;2023-08-07T04:47:53;9.63;;;4.95;;
70467;SDS011;57934;51.532;7.684;2023-08-07T04:50:20;13.68;;;5.70;;
70467;SDS011;57934;51.532;7.684;2023-08-07T04:52:46;14.68;;;6.18;;
70467;SDS011;57934;51.532;7.684;2023-08-07T04:55:12;11.45;;;5.90;;
70467;SDS011;57934;51.532;7.684;2023-08-07T04:57:38;10.93;;;5.95;;
70467;SDS011;57934;51.532;7.684;2023-08-07T05:00:04;17.48;;;6.97;;
70467;SDS011;57934;51.532;7.684;2023-08-07T05:02:30;17.10;;;7.57;;
70467;SDS011;57934;51.532;7.684;2023-08-07T05:04:56;11.93;;;6.70;;
70467;SDS011;57934;51.532;7.684;2023-08-07T05:07:22;11.82;;;7.70;;
70467;SDS011;57934;51.532;7.684;2023-08-07T05:09:48;18.10;;;8.82;;
70467;SDS011;57934;51.532;7.684;2023-08-07T05:12:16;16.85;;;8.27;;
70467;SDS011;57934;51.532;7.684;2023-08-07T05:14:42;18.90;;;8.55;;
70467;SDS011;57934;51.532;7.684;2023-08-07T05:17:08;17.42;;;9.38;;
70467;SDS011;57934;51.532;7.684;2023-08-07T05:19:34;20.27;;;9.15;;
70467;SDS011;57934;51.532;7.684;2023-08-07T05:22:00;21.45;;;9.23;;
70467;SDS011;57934;51.532;7.684;2023-08-07T05:24:26;17.13;;;10.05;;
70467;SDS011;57934;51.532;7.684;2023-08-07T05:26:52;19.38;;;10.20;;
70467;SDS011;57934;51.532;7.684;2023-08-07T05:29:18;16.35;;;10.05;;
70467;SDS011;57934;51.532;7.684;2023-08-07T05:31:44;15.88;;;10.98;;
70467;SDS011;57934;51.532;7.684;2023-08-07T05:34:10;22.25;;;11.45;;
70467;SDS011;57934;51.532;7.684;2023-08-07T05:36:35;17.30;;;10.60;;
70467;SDS011;57934;51.532;7.684;2023-08-07T05:39:03;19.63;;;10.90;;
70467;SDS011;57934;51.532;7.684;2023-08-07T05:41:30;12.98;;;10.70;;
70467;SDS011;57934;51.532;7.684;2023-08-07T05:43:56;19.27;;;10.25;;
70467;SDS011;57934;51.532;7.684;2023-08-07T05:46:21;21.15;;;9.98;;
70467;SDS011;57934;51.532;7.684;2023-08-07T05:48:47;17.23;;;10.00;;
70467;SDS011;57934;51.532;7.684;2023-08-07T05:51:13;27.08;;;12.20;;
70467;SDS011;57934;51.532;7.684;2023-08-07T05:53:39;18.92;;;11.20;;
70467;SDS011;57934;51.532;7.684;2023-08-07T05:56:05;16.92;;;10.02;;
70467;SDS011;57934;51.532;7.684;2023-08-07T05:58:31;17.70;;;10.05;;
70467;SDS011;57934;51.532;7.684;2023-08-07T06:00:57;18.13;;;9.23;;
70467;SDS011;57934;51.532;7.684;2023-08-07T06:03:23;17.73;;;9.15;;
70467;SDS011;57934;51.532;7.684;2023-08-07T06:05:49;18.85;;;9.35;;
70467;SDS011;57934;51.532;7.684;2023-08-07T06:08:15;16.83;;;8.32;;
70467;SDS011;57934;51.532;7.684;2023-08-07T06:10:41;14.05;;;8.60;;
70467;SDS011;57934;51.532;7.684;2023-08-07T06:13:07;14.80;;;10.02;;
70467;SDS011;57934;51.532;7.684;2023-08-07T06:15:34;14.55;;;9.35;;
70467;SDS011;57934;51.532;7.684;2023-08-07T06:18:00;20.38;;;9.57;;
70467;SDS011;57934;51.532;7.684;2023-08-07T06:20:26;13.82;;;9.02;;
70467;SDS011;57934;51.532;7.684;2023-08-07T06:22:52;17.92;;;10.13;;
70467;SDS011;57934;51.532;7.684;2023-08-07T06:25:18;15.77;;;10.35;;
70467;SDS011;57934;51.532;7.684;2023-08-07T06:27:45;15.32;;;10.13;;
70467;SDS011;57934;51.532;7.684;2023-08-07T06:30:11;14.90;;;9.82;;
70467;SDS011;57934;51.532;7.684;2023-08-07T06:32:37;12.85;;;8.25;;
70467;SDS011;57934;51.532;7.684;2023-08-07T06:35:03;17.75;;;9.23;;
70467;SDS011;57934;51.532;7.684;2023-08-07T06:37:30;14.85;;;9.20;;
70467;SDS011;57934;51.532;7.684;2023-08-07T06:39:56;13.65;;;9.43;;
70467;SDS011;57934;51.532;7.684;2023-08-07T06:42:22;14.00;;;9.50;;
70467;SDS011;57934;51.532;7.684;2023-08-07T06:44:48;13.27;;;8.52;;
70467;SDS011;57934;51.532;7.684;2023-08-07T06:47:14;12.15;;;8.68;;
70467;SDS011;57934;51.532;7.684;2023-08-07T06:49:40;10.43;;;8.55;;
70467;SDS011;57934;51.532;7.684;2023-08-07T06:52:06;15.55;;;9.18;;
70467;SDS011;57934;51.532;7.684;2023-08-07T06:54:32;11.43;;;8.75;;
70467;SDS011;57934;51.532;7.684;2023-08-07T06:56:58;14.07;;;9.02;;
70467;SDS011;57934;51.532;7.684;2023-08-07T06:59:24;17.45;;;9.05;;
70467;SDS011;57934;51.532;7.684;2023-08-07T07:01:51;12.95;;;9.20;;
70467;SDS011;57934;51.532;7.684;2023-08-07T07:04:17;21.88;;;9.63;;
70467;SDS011;57934;51.532;7.684;2023-08-07T07:06:43;15.95;;;10.80;;
70467;SDS011;57934;51.532;7.684;2023-08-07T07:09:09;18.50;;;12.48;;
70467;SDS011;57934;51.532;7.684;2023-08-07T07:11:35;20.00;;;12.02;;
70467;SDS011;57934;51.532;7.684;2023-08-07T07:14:01;21.48;;;12.90;;
70467;SDS011;57934;51.532;7.684;2023-08-07T07:16:27;20.70;;;13.45;;
70467;SDS011;57934;51.532;7.684;2023-08-07T07:18:53;22.70;;;13.05;;
70467;SDS011;57934;51.532;7.684;2023-08-07T07:21:21;19.45;;;12.40;;
70467;SDS011;57934;51.532;7.684;2023-08-07T07:23:47;18.25;;;12.30;;
70467;SDS011;57934;51.532;7.684;2023-08-07T07:26:13;19.63;;;12.98;;
70467;SDS011;57934;51.532;7.684;2023-08-07T07:28:39;20.33;;;13.07;;
70467;SDS011;57934;51.532;7.684;2023-08-07T07:31:05;23.20;;;13.02;;
70467;SDS011;57934;51.532;7.684;2023-08-07T07:33:34;16.60;;;11.93;;
70467;SDS011;57934;51.532;7.684;2023-08-07T07:36:02;22.15;;;11.90;;
70467;SDS011;57934;51.532;7.684;2023-08-07T07:38:28;21.88;;;11.95;;
70467;SDS011;57934;51.532;7.684;2023-08-07T07:40:54;18.20;;;12.43;;
70467;SDS011;57934;51.532;7.684;2023-08-07T07:43:22;18.70;;;12.20;;
70467;SDS011;57934;51.532;7.684;2023-08-07T07:45:49;16.77;;;11.45;;
70467;SDS011;57934;51.532;7.684;2023-08-07T07:48:15;16.90;;;10.70;;
70467;SDS011;57934;51.532;7.684;2023-08-07T07:50:41;15.30;;;10.23;;
70467;SDS011;57934;51.532;7.684;2023-08-07T07:53:07;19.20;;;11.00;;
70467;SDS011;57934;51.532;7.684;2023-08-07T07:55:33;14.27;;;9.38;;
70467;SDS011;57934;51.532;7.684;2023-08-07T07:57:59;15.25;;;8.57;;
70467;SDS011;57934;51.532;7.684;2023-08-07T08:00:26;11.43;;;6.63;;
70467;SDS011;57934;51.532;7.684;2023-08-07T08:02:52;9.30;;;5.68;;
70467;SDS011;57934;51.532;7.684;2023-08-07T08:05:19;7.28;;;4.90;;
70467;SDS011;57934;51.532;7.684;2023-08-07T08:07:45;8.07;;;4.80;;
70467;SDS011;57934;51.532;7.684;2023-08-07T08:10:11;6.07;;;4.30;;
70467;SDS011;57934;51.532;7.684;2023-08-07T08:12:38;5.70;;;3.47;;
70467;SDS011;57934;51.532;7.684;2023-08-07T08:15:04;5.72;;;3.50;;
70467;SDS011;57934;51.532;7.684;2023-08-07T08:17:31;4.90;;;3.38;;
70467;SDS011;57934;51.532;7.684;2023-08-07T08:19:57;5.88;;;3.30;;
70467;SDS011;57934;51.532;7.684;2023-08-07T08:22:23;5.05;;;3.25;;
70467;SDS011;57934;51.532;7.684;2023-08-07T08:24:49;4.75;;;3.53;;
70467;SDS011;57934;51.532;7.684;2023-08-07T08:27:15;4.40;;;3.35;;
70467;SDS011;57934;51.532;7.684;2023-08-07T08:29:43;3.47;;;2.92;;
70467;SDS011;57934;51.532;7.684;2023-08-07T08:32:10;4.15;;;3.03;;
70467;SDS011;57934;51.532;7.684;2023-08-07T08:34:36;6.22;;;3.05;;
70467;SDS011;57934;51.532;7.684;2023-08-07T08:37:02;4.00;;;3.42;;
70467;SDS011;57934;51.532;7.684;2023-08-07T08:39:31;3.38;;;3.08;;
70467;SDS011;57934;51.532;7.684;2023-08-07T08:41:57;8.25;;;4.75;;
70467;SDS011;57934;51.532;7.684;2023-08-07T08:44:24;5.72;;;4.80;;
70467;SDS011;57934;51.532;7.684;2023-08-07T08:46:51;7.82;;;4.75;;
70467;SDS011;57934;51.532;7.684;2023-08-07T08:49:24;5.47;;;4.28;;
70467;SDS011;57934;51.532;7.684;2023-08-07T08:54:22;7.72;;;4.25;;
70467;SDS011;57934;51.532;7.684;2023-08-07T08:56:48;6.65;;;3.38;;
70467;SDS011;57934;51.532;7.684;2023-08-07T08:59:15;8.38;;;3.55;;
70467;SDS011;57934;51.532;7.684;2023-08-07T09:01:44;7.22;;;3.05;;
70467;SDS011;57934;51.532;7.684;2023-08-07T09:04:11;6.00;;;2.83;;
70467;SDS011;57934;51.532;7.684;2023-08-07T09:06:37;9.55;;;3.00;;
70467;SDS011;57934;51.532;7.684;2023-08-07T09:09:04;6.75;;;3.35;;
70467;SDS011;57934;51.532;7.684;2023-08-07T09:11:30;5.65;;;2.70;;
70467;SDS011;57934;51.532;7.684;2023-08-07T09:13:58;9.00;;;3.17;;
70467;SDS011;57934;51.532;7.684;2023-08-07T09:16:26;8.13;;;3.20;;
70467;SDS011;57934;51.532;7.684;2023-08-07T09:18:53;10.48;;;2.80;;
70467;SDS011;57934;51.532;7.684;2023-08-07T09:21:21;4.35;;;2.10;;
70467;SDS011;57934;51.532;7.684;2023-08-07T09:23:47;11.95;;;3.00;;
70467;SDS011;57934;51.532;7.684;2023-08-07T09:26:13;9.27;;;2.78;;
70467;SDS011;57934;51.532;7.684;2023-08-07T09:28:39;7.15;;;2.20;;
70467;SDS011;57934;51.532;7.684;2023-08-07T09:31:08;6.90;;;2.22;;
70467;SDS011;57934;51.532;7.684;2023-08-07T09:33:34;4.60;;;1.85;;
70467;SDS011;57934;51.532;7.684;2023-08-07T09:36:01;6.05;;;3.28;;
70467;SDS011;57934;51.532;7.684;2023-08-07T09:38:30;5.10;;;3.08;;
70467;SDS011;57934;51.532;7.684;2023-08-07T09:41:00;9.25;;;3.03;;
70467;SDS011;57934;51.532;7.684;2023-08-07T09:43:29;11.25;;;3.67;;
70467;SDS011;57934;51.532;7.684;2023-08-07T09:46:01;11.65;;;3.20;;
70467;SDS011;57934;51.532;7.684;2023-08-07T09:48:31;5.13;;;2.60;;
70467;SDS011;57934;51.532;7.684;2023-08-07T09:51:02;10.40;;;2.80;;
70467;SDS011;57934;51.532;7.684;2023-08-07T09:53:29;7.68;;;2.30;;
70467;SDS011;57934;51.532;7.684;2023-08-07T09:55:55;6.43;;;2.60;;
70467;SDS011;57934;51.532;7.684;2023-08-07T09:58:23;9.70;;;2.92;;
70467;SDS011;57934;51.532;7.684;2023-08-07T10:00:50;7.20;;;2.60;;
70467;SDS011;57934;51.532;7.684;2023-08-07T10:03:22;14.02;;;3.50;;
70467;SDS011;57934;51.532;7.684;2023-08-07T10:05:48;13.50;;;4.35;;
70467;SDS011;57934;51.532;7.684;2023-08-07T10:08:15;12.43;;;3.15;;
70467;SDS011;57934;51.532;7.684;2023-08-07T10:10:41;13.20;;;3.22;;
70467;SDS011;57934;51.532;7.684;2023-08-07T10:13:09;12.70;;;3.55;;
70467;SDS011;57934;51.532;7.684;2023-08-07T10:15:38;10.80;;;3.40;;
70467;SDS011;57934;51.532;7.684;2023-08-07T10:18:06;12.18;;;3.15;;
70467;SDS011;57934;51.532;7.684;2023-08-07T10:20:32;13.23;;;3.92;;
70467;SDS011;57934;51.532;7.684;2023-08-07T10:23:00;8.30;;;3.15;;
70467;SDS011;57934;51.532;7.684;2023-08-07T10:25:37;7.30;;;2.50;;
70467;SDS011;57934;51.532;7.684;2023-08-07T10:28:08;5.50;;;2.40;;
70467;SDS011;57934;51.532;7.684;2023-08-07T10:30:38;6.03;;;2.50;;
70467;SDS011;57934;51.532;7.684;2023-08-07T10:33:06;6.07;;;2.30;;
70467;SDS011;57934;51.532;7.684;2023-08-07T10:35:34;10.05;;;2.13;;
70467;SDS011;57934;51.532;7.684;2023-08-07T10:38:07;9.52;;;2.50;;
70467;SDS011;57934;51.532;7.684;2023-08-07T10:40:34;5.43;;;2.40;;
70467;SDS011;57934;51.532;7.684;2023-08-07T10:43:37;9.93;;;2.38;;
70467;SDS011;57934;51.532;7.684;2023-08-07T10:46:20;8.20;;;2.53;;
70467;SDS011;57934;51.532;7.684;2023-08-07T10:48:53;9.73;;;2.60;;
70467;SDS011;57934;51.532;7.684;2023-08-07T10:51:20;8.00;;;2.78;;
70467;SDS011;57934;51.532;7.684;2023-08-07T10:53:49;7.20;;;2.45;;
70467;SDS011;57934;51.532;7.684;2023-08-07T10:56:17;7.45;;;2.20;;
70467;SDS011;57934;51.532;7.684;2023-08-07T10:58:54;5.30;;;2.08;;
70467;SDS011;57934;51.532;7.684;2023-08-07T11:03:59;8.70;;;2.60;;
70467;SDS011;57934;51.532;7.684;2023-08-07T11:06:27;7.33;;;2.60;;
70467;SDS011;57934;51.532;7.684;2023-08-07T11:08:57;9.07;;;3.00;;
70467;SDS011;57934;51.532;7.684;2023-08-07T11:11:24;8.50;;;2.80;;
70467;SDS011;57934;51.532;7.684;2023-08-07T11:13:52;8.82;;;2.92;;
70467;SDS011;57934;51.532;7.684;2023-08-07T11:16:19;5.72;;;2.20;;
70467;SDS011;57934;51.532;7.684;2023-08-07T11:18:48;7.18;;;2.10;;
70467;SDS011;57934;51.532;7.684;2023-08-07T11:21:15;7.20;;;2.63;;
70467;SDS011;57934;51.532;7.684;2023-08-07T11:23:41;6.93;;;2.10;;
70467;SDS011;57934;51.532;7.684;2023-08-07T11:26:09;5.35;;;2.40;;
70467;SDS011;57934;51.532;7.684;2023-08-07T11:28:35;7.97;;;2.13;;
70467;SDS011;57934;51.532;7.684;2023-08-07T11:31:01;12.50;;;3.03;;
70467;SDS011;57934;51.532;7.684;2023-08-07T11:33:28;6.78;;;2.55;;
70467;SDS011;57934;51.532;7.684;2023-08-07T11:35:54;7.90;;;3.13;;
70467;SDS011;57934;51.532;7.684;2023-08-07T11:41:04;7.63;;;2.42;;
70467;SDS011;57934;51.532;7.684;2023-08-07T11:43:32;5.55;;;2.17;;
70467;SDS011;57934;51.532;7.684;2023-08-07T11:46:02;3.85;;;2.08;;
70467;SDS011;57934;51.532;7.684;2023-08-07T11:48:30;9.65;;;2.97;;
70467;SDS011;57934;51.532;7.684;2023-08-07T11:50:57;11.00;;;2.58;;
70467;SDS011;57934;51.532;7.684;2023-08-07T11:53:25;4.85;;;2.00;;
70467;SDS011;57934;51.532;7.684;2023-08-07T11:55:52;7.10;;;2.67;;
70467;SDS011;57934;51.532;7.684;2023-08-07T11:58:20;7.28;;;2.38;;
70467;SDS011;57934;51.532;7.684;2023-08-07T12:00:47;5.30;;;2.10;;
70467;SDS011;57934;51.532;7.684;2023-08-07T12:04:16;5.65;;;2.40;;
70467;SDS011;57934;51.532;7.684;2023-08-07T12:06:23;4.65;;;2.38;;
70467;SDS011;57934;51.532;7.684;2023-08-07T12:08:53;10.07;;;2.72;;
70467;SDS011;57934;51.532;7.684;2023-08-07T12:11:20;7.45;;;2.53;;
70467;SDS011;57934;51.532;7.684;2023-08-07T12:13:46;7.32;;;2.75;;
70467;SDS011;57934;51.532;7.684;2023-08-07T12:16:13;7.68;;;2.60;;
70467;SDS011;57934;51.532;7.684;2023-08-07T12:18:50;6.32;;;2.22;;
70467;SDS011;57934;51.532;7.684;2023-08-07T12:21:17;9.95;;;2.70;;
70467;SDS011;57934;51.532;7.684;2023-08-07T12:23:46;9.93;;;2.85;;
70467;SDS011;57934;51.532;7.684;2023-08-07T12:26:13;7.38;;;2.22;;
70467;SDS011;57934;51.532;7.684;2023-08-07T12:28:39;9.07;;;2.10;;
70467;SDS011;57934;51.532;7.684;2023-08-07T12:31:05;9.40;;;2.20;;
70467;SDS011;57934;51.532;7.684;2023-08-07T12:33:32;11.00;;;2.70;;
70467;SDS011;57934;51.532;7.684;2023-08-07T12:35:59;4.97;;;2.33;;
70467;SDS011;57934;51.532;7.684;2023-08-07T12:38:26;4.72;;;1.98;;
70467;SDS011;57934;51.532;7.684;2023-08-07T12:40:52;6.95;;;2.35;;
70467;SDS011;57934;51.532;7.684;2023-08-07T12:43:18;9.38;;;2.20;;
70467;SDS011;57934;51.532;7.684;2023-08-07T12:45:45;6.03;;;2.05;;
70467;SDS011;57934;51.532;7.684;2023-08-07T12:48:11;4.35;;;1.83;;
70467;SDS011;57934;51.532;7.684;2023-08-07T12:50:37;3.63;;;1.80;;
70467;SDS011;57934;51.532;7.684;2023-08-07T12:53:03;5.75;;;1.73;;
70467;SDS011;57934;51.532;7.684;2023-08-07T12:55:29;8.10;;;1.90;;
70467;SDS011;57934;51.532;7.684;2023-08-07T12:57:55;7.13;;;1.90;;
70467;SDS011;57934;51.532;7.684;2023-08-07T13:00:22;5.57;;;2.20;;
70467;SDS011;57934;51.532;7.684;2023-08-07T13:02:49;6.45;;;2.15;;
70467;SDS011;57934;51.532;7.684;2023-08-07T13:05:17;7.40;;;2.20;;
70467;SDS011;57934;51.532;7.684;2023-08-07T13:07:44;9.40;;;2.20;;
70467;SDS011;57934;51.532;7.684;2023-08-07T13:10:12;12.80;;;3.30;;
70467;SDS011;57934;51.532;7.684;2023-08-07T13:12:40;7.40;;;2.20;;
70467;SDS011;57934;51.532;7.684;2023-08-07T13:15:08;5.40;;;1.90;;
70467;SDS011;57934;51.532;7.684;2023-08-07T13:17:38;10.65;;;2.50;;
70467;SDS011;57934;51.532;7.684;2023-08-07T13:20:05;4.75;;;1.88;;
70467;SDS011;57934;51.532;7.684;2023-08-07T13:22:35;8.65;;;2.85;;
70467;SDS011;57934;51.532;7.684;2023-08-07T13:25:02;7.60;;;2.42;;
70467;SDS011;57934;51.532;7.684;2023-08-07T13:27:29;9.00;;;2.60;;
70467;SDS011;57934;51.532;7.684;2023-08-07T13:29:59;8.63;;;2.80;;
70467;SDS011;57934;51.532;7.684;2023-08-07T13:32:25;11.15;;;2.20;;
70467;SDS011;57934;51.532;7.684;2023-08-07T13:34:52;8.02;;;2.20;;
70467;SDS011;57934;51.532;7.684;2023-08-07T13:37:18;7.22;;;1.55;;
70467;SDS011;57934;51.532;7.684;2023-08-07T13:39:44;7.82;;;2.53;;
70467;SDS011;57934;51.532;7.684;2023-08-07T13:42:10;8.63;;;2.17;;
70467;SDS011;57934;51.532;7.684;2023-08-07T13:44:37;6.60;;;1.95;;
70467;SDS011;57934;51.532;7.684;2023-08-07T13:47:04;7.35;;;2.50;;
70467;SDS011;57934;51.532;7.684;2023-08-07T13:49:30;6.53;;;2.30;;
70467;SDS011;57934;51.532;7.684;2023-08-07T13:51:56;7.05;;;2.03;;
70467;SDS011;57934;51.532;7.684;2023-08-07T13:54:22;6.90;;;2.08;;
70467;SDS011;57934;51.532;7.684;2023-08-07T13:56:48;7.43;;;2.08;;
70467;SDS011;57934;51.532;7.684;2023-08-07T13:59:16;6.75;;;2.08;;
70467;SDS011;57934;51.532;7.684;2023-08-07T14:01:42;5.85;;;2.70;;
70467;SDS011;57934;51.532;7.684;2023-08-07T14:04:08;6.95;;;2.22;;
70467;SDS011;57934;51.532;7.684;2023-08-07T14:06:34;5.43;;;2.60;;
70467;SDS011;57934;51.532;7.684;2023-08-07T14:09:00;7.78;;;2.20;;
70467;SDS011;57934;51.532;7.684;2023-08-07T14:11:26;3.78;;;2.10;;
70467;SDS011;57934;51.532;7.684;2023-08-07T14:13:56;4.18;;;1.98;;
70467;SDS011;57934;51.532;7.684;2023-08-07T14:16:23;6.30;;;2.10;;
70467;SDS011;57934;51.532;7.684;2023-08-07T14:18:49;7.88;;;2.72;;
70467;SDS011;57934;51.532;7.684;2023-08-07T14:21:15;7.93;;;2.17;;
70467;SDS011;57934;51.532;7.684;2023-08-07T14:23:41;4.22;;;2.30;;
70467;SDS011;57934;51.532;7.684;2023-08-07T14:26:08;9.40;;;2.13;;
70467;SDS011;57934;51.532;7.684;2023-08-07T14:28:34;4.32;;;2.30;;
70467;SDS011;57934;51.532;7.684;2023-08-07T14:31:00;6.10;;;2.55;;
70467;SDS011;57934;51.532;7.684;2023-08-07T14:33:28;8.05;;;2.63;;
70467;SDS011;57934;51.532;7.684;2023-08-07T14:35:55;6.30;;;2.30;;
70467;SDS011;57934;51.532;7.684;2023-08-07T14:38:21;3.00;;;1.98;;
70467;SDS011;57934;51.532;7.684;2023-08-07T14:40:47;10.50;;;2.42;;
70467;SDS011;57934;51.532;7.684;2023-08-07T14:43:13;4.47;;;2.22;;
70467;SDS011;57934;51.532;7.684;2023-08-07T14:45:39;5.63;;;1.70;;
70467;SDS011;57934;51.532;7.684;2023-08-07T14:48:05;6.22;;;1.67;;
70467;SDS011;57934;51.532;7.684;2023-08-07T14:50:32;4.95;;;2.10;;
70467;SDS011;57934;51.532;7.684;2023-08-07T14:52:58;10.20;;;2.17;;